Time;durP1;ratioP1;P1;durP2;ratioP2;P2;SDS_P1;SDS_P2;PMS_P1;PMS_P2;Temp;Humidity;BMP_temperature;BMP_pressure;BME280_temperature;BME280_humidity;BME280_pressure;Samples;Min_cycle;Max_cycle;Signal;HPM_P1;HPM_P2
2022/06/09 00:01:31;;;;;;;;;1.00;1.00;;;;;18.59;53.26;100927.13;5054532;28;45507;-74
2022/06/09 00:04:28;;;;;;;;;1.00;1.00;;;;;18.15;53.51;100862.97;5054374;28;45572;-75
2022/06/09 00:07:05;;;;;;;;;1.00;1.00;;;;;18.55;53.63;100941.38;5052541;28;46557;-72
2022/06/09 00:09:35;;;;;;;;;1.67;1.67;;;;;18.54;54.29;100942.31;5057793;28;45382;-73
2022/06/09 00:12:01;;;;;;;;;2.00;2.00;;;;;18.01;54.40;100873.06;5054572;28;45660;-71
2022/06/09 00:14:27;;;;;;;;;3.00;1.00;;;;;18.16;54.49;100907.09;5057410;28;45330;-71
2022/06/09 00:16:54;;;;;;;;;1.00;1.00;;;;;18.22;53.75;100908.69;5055785;28;45575;-71
2022/06/09 00:19:20;;;;;;;;;2.00;1.00;;;;;18.39;53.69;100940.97;5056463;28;46146;-73
2022/06/09 00:21:46;;;;;;;;;2.00;1.67;;;;;18.43;53.40;100958.50;5055466;28;45374;-73
2022/06/09 00:24:12;;;;;;;;;2.00;2.00;;;;;18.22;53.64;100917.56;5056202;28;45339;-73
2022/06/09 00:26:38;;;;;;;;;2.00;2.00;;;;;18.29;53.87;100947.41;5058475;28;45399;-72
2022/06/09 00:29:05;;;;;;;;;2.33;1.00;;;;;18.41;53.65;100963.00;5058617;28;45483;-72
2022/06/09 00:31:31;;;;;;;;;3.00;1.00;;;;;18.40;53.68;100963.91;5057884;28;46305;-72
2022/06/09 00:33:56;;;;;;;;;2.00;2.00;;;;;18.40;53.62;100976.28;5057007;28;46492;-72
2022/06/09 00:36:22;;;;;;;;;2.33;2.00;;;;;18.39;53.62;100974.56;5056272;28;46050;-72
2022/06/09 00:38:48;;;;;;;;;4.00;1.33;;;;;18.23;53.55;100952.88;5057774;28;45323;-71
2022/06/09 00:41:14;;;;;;;;;1.67;1.67;;;;;18.25;53.87;100963.44;5055401;28;45289;-72
2022/06/09 00:43:44;;;;;;;;;2.67;1.00;;;;;17.99;53.77;100917.28;5057285;28;46427;-73
2022/06/09 00:46:10;;;;;;;;;1.00;1.00;;;;;18.27;54.04;100969.56;5056092;28;46820;-73
2022/06/09 00:48:54;;;;;;;;;2.33;2.00;;;;;18.25;53.71;100974.94;5057665;28;45520;-73
2022/06/09 00:51:39;;;;;;;;;2.00;2.00;;;;;18.25;53.84;100974.94;5056084;28;45611;-72
2022/06/09 00:54:11;;;;;;;;;1.67;1.00;;;;;18.18;53.84;100968.91;5052706;28;45647;-72
2022/06/09 00:56:41;;;;;;;;;6.67;2.00;;;;;18.16;54.33;100957.47;5056070;28;45465;-72
2022/06/09 00:59:11;;;;;;;;;3.00;1.33;;;;;18.16;54.13;100967.22;5053475;28;45461;-72
2022/06/09 01:01:40;;;;;;;;;2.00;2.00;;;;;18.15;54.22;100976.94;5071545;28;45513;-73
2022/06/09 01:04:10;;;;;;;;;1.00;1.00;;;;;18.12;54.41;100973.50;5071093;27;45483;-71
2022/06/09 01:06:45;;;;;;;;;2.00;2.00;;;;;18.01;54.30;100979.94;5056659;28;46038;-72
2022/06/09 01:09:21;;;;;;;;;3.00;1.67;;;;;17.96;54.02;100965.03;5057209;28;45884;-72
2022/06/09 01:11:49;;;;;;;;;2.00;1.00;;;;;18.05;54.22;100985.16;5058045;28;45276;-74
2022/06/09 01:14:19;;;;;;;;;1.67;1.67;;;;;17.98;54.54;100971.19;5057596;28;45409;-74
2022/06/09 01:16:55;;;;;;;;;2.33;2.33;;;;;18.03;54.68;100979.88;5057577;28;46117;-72
2022/06/09 01:19:48;;;;;;;;;1.33;1.33;;;;;17.96;54.68;100975.63;5054860;28;45467;-72
2022/06/09 01:22:16;;;;;;;;;3.00;2.00;;;;;17.97;54.59;100980.06;5055420;28;45845;-72
2022/06/09 01:24:51;;;;;;;;;1.00;1.00;;;;;17.96;54.85;100987.13;5055784;28;46124;-72
2022/06/09 01:27:44;;;;;;;;;2.00;1.00;;;;;17.94;54.77;100982.78;5057108;28;45534;-72
2022/06/09 01:30:19;;;;;;;;;1.67;1.00;;;;;17.91;54.82;100986.34;5057566;28;45824;-72
2022/06/09 01:32:54;;;;;;;;;1.00;0.33;;;;;17.74;54.78;100972.63;5058710;28;45558;-73
2022/06/09 01:35:41;;;;;;;;;3.00;1.33;;;;;17.78;54.81;100985.75;5058355;28;45401;-71
2022/06/09 01:38:08;;;;;;;;;2.33;1.00;;;;;17.45;54.96;100944.19;5058008;28;46652;-71
2022/06/09 01:40:33;;;;;;;;;2.67;2.67;;;;;17.72;55.08;100990.31;5043584;28;45431;-73
2022/06/09 01:43:00;;;;;;;;;3.67;1.00;;;;;17.64;55.35;100984.34;5057010;28;45419;-74
2022/06/09 01:45:47;;;;;;;;;2.33;2.33;;;;;17.73;55.20;101000.03;5058498;28;45249;-74
2022/06/09 01:48:16;;;;;;;;;4.00;1.67;;;;;17.59;55.03;100973.84;5045893;28;46195;-73
2022/06/09 01:51:03;;;;;;;;;2.00;2.00;;;;;17.59;55.37;100980.03;5057665;28;45399;-73
2022/06/09 01:53:51;;;;;;;;;2.00;2.00;;;;;17.70;55.15;100995.69;5056804;28;45503;-73
2022/06/09 01:56:31;;;;;;;;;3.33;2.00;;;;;17.53;55.23;100971.34;5058257;28;45513;-74
2022/06/09 01:59:09;;;;;;;;;3.33;0.00;;;;;17.25;54.97;100937.56;5057905;28;45634;-73
2022/06/09 02:01:42;;;;;;;;;3.00;1.00;;;;;17.34;55.35;100950.56;5057621;28;45401;-73
2022/06/09 02:04:16;;;;;;;;;3.00;1.00;;;;;17.63;55.35;101003.78;5056349;28;45397;-72
2022/06/09 02:06:43;;;;;;;;;4.33;2.00;;;;;17.48;55.46;101003.22;5042707;28;46030;-72
2022/06/09 02:09:10;;;;;;;;;2.33;1.00;;;;;17.44;55.43;100998.03;5058044;28;45294;-75
2022/06/09 02:11:51;;;;;;;;;4.00;1.00;;;;;17.55;55.50;101023.34;5056291;28;45542;-71
2022/06/09 02:14:20;;;;;;;;;2.33;2.00;;;;;17.52;55.81;101026.09;5057884;28;45325;-71
2022/06/09 02:16:46;;;;;;;;;1.00;1.00;;;;;17.04;55.73;100954.78;5057798;28;45330;-74
2022/06/09 02:19:12;;;;;;;;;6.33;2.33;;;;;17.41;55.74;101011.34;5057478;28;46099;-74
2022/06/09 02:21:39;;;;;;;;;1.67;0.00;;;;;17.49;55.67;101027.94;5056191;28;45521;-74
2022/06/09 02:24:05;;;;;;;;;1.67;1.00;;;;;17.24;55.82;100983.44;5057723;28;45552;-71
2022/06/09 02:26:31;;;;;;;;;1.00;1.00;;;;;17.49;56.01;101041.19;5055820;28;45496;-73
2022/06/09 02:28:57;;;;;;;;;1.00;1.00;;;;;17.46;55.97;101030.63;5056615;28;46249;-73
2022/06/09 02:31:24;;;;;;;;;2.00;2.00;;;;;17.44;55.94;101032.44;5057868;28;46101;-73
2022/06/09 02:33:51;;;;;;;;;2.00;1.00;;;;;17.42;55.88;101029.84;5057432;28;45492;-72
2022/06/09 02:36:17;;;;;;;;;2.67;1.00;;;;;17.28;55.97;101008.09;5057529;28;45594;-74
2022/06/09 02:38:43;;;;;;;;;2.67;2.00;;;;;17.35;55.93;101026.47;5057678;28;46465;-73
2022/06/09 02:41:10;;;;;;;;;2.33;2.33;;;;;17.42;55.91;101031.63;5045358;28;45404;-72
2022/06/09 02:43:35;;;;;;;;;1.67;1.67;;;;;17.18;55.99;100999.47;5059916;28;45484;-73
2022/06/09 02:46:03;;;;;;;;;3.00;2.00;;;;;17.38;55.91;101030.81;5058795;28;45404;-73
2022/06/09 02:48:30;;;;;;;;;3.00;2.00;;;;;17.19;56.06;101001.22;5056755;28;46962;-73
2022/06/09 02:50:56;;;;;;;;;1.00;1.00;;;;;17.29;56.25;101023.94;5046098;28;45303;-73
2022/06/09 02:53:23;;;;;;;;;1.00;1.00;;;;;17.30;56.23;101030.97;5041420;28;45418;-73
2022/06/09 02:55:50;;;;;;;;;1.67;1.67;;;;;17.35;56.07;101039.69;5047306;28;45460;-75
2022/06/09 02:58:16;;;;;;;;;2.00;2.00;;;;;17.32;56.33;101038.88;5048137;28;45445;-73
2022/06/09 03:00:42;;;;;;;;;5.67;2.00;;;;;17.33;56.03;101038.84;5051084;28;45454;-73
2022/06/09 03:03:12;;;;;;;;;6.00;1.00;;;;;17.10;56.55;101009.34;5057169;28;45366;-73
2022/06/09 03:05:38;;;;;;;;;2.00;2.00;;;;;17.13;56.33;101012.81;5055810;28;45351;-74
2022/06/09 03:08:06;;;;;;;;;3.33;2.00;;;;;17.13;58.43;101020.75;5042823;28;45457;-77
2022/06/09 03:10:33;;;;;;;;;1.00;1.00;;;;;17.42;58.69;101040.44;5057195;28;45440;-76
2022/06/09 03:12:59;;;;;;;;;3.33;2.00;;;;;17.51;56.91;101036.69;5055503;28;45414;-73
2022/06/09 03:15:25;;;;;;;;;2.00;2.00;;;;;17.50;56.37;101038.50;5057119;28;45279;-72
2022/06/09 03:17:51;;;;;;;;;3.33;2.00;;;;;17.49;56.87;101047.34;5055252;28;47260;-74
2022/06/09 03:20:24;;;;;;;;;2.33;2.00;;;;;17.53;57.17;101037.53;5056433;28;45454;-76
2022/06/09 03:22:49;;;;;;;;;3.00;2.00;;;;;17.57;56.61;101042.75;5056379;28;45490;-72
2022/06/09 03:25:15;;;;;;;;;2.00;1.33;;;;;17.52;56.42;101019.94;5042918;28;45560;-72
2022/06/09 03:27:40;;;;;;;;;4.00;1.33;;;;;17.49;56.11;101027.94;5056771;28;45418;-74
2022/06/09 03:30:08;;;;;;;;;2.33;2.33;;;;;17.47;56.28;101025.31;5056851;28;45394;-73
2022/06/09 03:32:34;;;;;;;;;4.00;1.33;;;;;17.55;56.90;101049.84;5056955;28;45445;-72
2022/06/09 03:34:59;;;;;;;;;2.00;2.00;;;;;17.55;56.43;101044.56;5057142;28;45415;-72
2022/06/09 03:37:25;;;;;;;;;2.00;2.00;;;;;17.41;56.25;101027.22;5056949;28;46204;-74
2022/06/09 03:39:51;;;;;;;;;5.00;3.00;;;;;17.50;56.11;101042.91;5056547;28;45397;-71
2022/06/09 03:42:17;;;;;;;;;1.00;1.00;;;;;17.48;56.15;101052.66;5059825;28;45703;-73
2022/06/09 03:44:42;;;;;;;;;4.00;3.00;;;;;17.55;56.33;101067.53;5060646;28;45406;-76
2022/06/09 03:47:10;;;;;;;;;1.33;1.00;;;;;17.45;56.59;101055.38;5060169;28;45955;-73
2022/06/09 03:49:36;;;;;;;;;2.33;2.00;;;;;17.47;56.38;101050.94;5051789;28;45429;-71
2022/06/09 03:52:12;;;;;;;;;3.00;2.00;;;;;17.50;56.26;101070.25;5057520;28;45476;-73
2022/06/09 03:54:37;;;;;;;;;2.33;1.00;;;;;17.53;56.32;101078.13;5058672;28;45666;-72
2022/06/09 03:57:04;;;;;;;;;2.00;2.00;;;;;17.53;56.46;101083.44;5058649;28;45554;-73
2022/06/09 03:59:30;;;;;;;;;1.67;1.67;;;;;17.44;56.48;101077.47;5046150;28;45605;-73
2022/06/09 04:01:56;;;;;;;;;3.67;2.00;;;;;17.49;56.66;101088.84;5060350;28;45492;-74
2022/06/09 04:04:21;;;;;;;;;4.00;3.00;;;;;17.51;56.29;101090.56;5059676;28;45496;-74
2022/06/09 04:06:47;;;;;;;;;1.00;1.00;;;;;17.44;56.26;101077.47;5073219;28;45349;-71
2022/06/09 04:09:15;;;;;;;;;3.00;1.00;;;;;17.51;56.40;101084.38;5069749;28;45687;-73
2022/06/09 04:11:41;;;;;;;;;3.00;2.00;;;;;17.52;56.28;101096.72;5064434;28;45321;-72
2022/06/09 04:14:09;;;;;;;;;4.00;2.00;;;;;17.52;56.49;101102.88;5064705;28;45228;-73
2022/06/09 04:16:38;;;;;;;;;5.00;2.00;;;;;17.52;56.47;101100.25;5067459;28;46131;-72
2022/06/09 04:19:10;;;;;;;;;2.00;2.00;;;;;17.45;56.42;101090.69;5064729;28;45362;-71
2022/06/09 04:21:37;;;;;;;;;4.00;2.00;;;;;17.49;56.67;101097.66;5079764;28;45424;-71
2022/06/09 04:24:03;;;;;;;;;1.67;1.33;;;;;17.55;56.76;101107.25;5060099;28;45425;-72
2022/06/09 04:26:32;;;;;;;;;4.67;1.33;;;;;17.56;56.62;101107.22;5058922;28;46236;-74
2022/06/09 04:28:58;;;;;;;;;1.00;1.00;;;;;17.41;56.65;101096.06;5058856;28;45740;-76
2022/06/09 04:31:23;;;;;;;;;5.33;2.00;;;;;17.51;56.71;101109.09;5058949;28;45419;-76
2022/06/09 04:33:49;;;;;;;;;4.67;3.00;;;;;17.51;56.30;101106.44;5054612;28;45440;-75
2022/06/09 04:36:17;;;;;;;;;5.00;2.00;;;;;17.59;56.37;101111.59;5055520;28;45484;-74
2022/06/09 04:38:43;;;;;;;;;3.67;2.00;;;;;17.66;56.63;101134.38;5055480;28;45429;-72
2022/06/09 04:41:12;;;;;;;;;3.00;1.33;;;;;17.67;56.29;101135.25;5066146;27;45428;-74
2022/06/09 04:43:44;;;;;;;;;3.67;2.00;;;;;17.70;56.20;101133.44;5061558;28;45429;-74
2022/06/09 04:46:12;;;;;;;;;2.33;2.33;;;;;17.69;56.06;101130.81;5061417;28;46191;-73
2022/06/09 04:48:39;;;;;;;;;3.67;2.00;;;;;17.76;55.82;101140.34;5058887;28;45373;-72
2022/06/09 04:51:10;;;;;;;;;4.67;2.00;;;;;17.78;55.74;101147.38;5062190;28;45493;-74
2022/06/09 04:53:40;;;;;;;;;2.00;2.00;;;;;17.80;55.74;101152.66;5060277;28;45997;-73
2022/06/09 04:56:07;;;;;;;;;4.00;3.00;;;;;17.80;55.90;101156.19;5057964;28;46504;-71
2022/06/09 04:58:33;;;;;;;;;4.00;2.00;;;;;17.83;55.69;101160.56;5043669;28;46164;-72
2022/06/09 05:00:59;;;;;;;;;3.00;2.33;;;;;17.87;55.67;101164.88;5059045;28;45545;-72
2022/06/09 05:03:24;;;;;;;;;3.00;3.00;;;;;17.92;55.49;101175.41;5074765;27;45472;-72
2022/06/09 05:05:51;;;;;;;;;2.00;2.00;;;;;17.95;55.55;101175.31;5071535;27;46291;-76
2022/06/09 05:08:17;;;;;;;;;3.33;3.33;;;;;17.80;55.46;101140.28;5072648;27;45354;-73
2022/06/09 05:10:45;;;;;;;;;7.00;3.00;;;;;17.99;55.61;101166.41;5072694;27;45380;-74
2022/06/09 05:13:12;;;;;;;;;2.00;2.00;;;;;18.07;55.29;101171.53;5070841;28;45318;-74
2022/06/09 05:15:51;;;;;;;;;4.67;3.67;;;;;17.99;54.93;101156.66;5073560;27;45435;-71
2022/06/09 05:18:19;;;;;;;;;3.33;3.33;;;;;18.10;55.00;101174.09;5070333;28;45248;-74
2022/06/09 05:20:45;;;;;;;;;2.00;2.00;;;;;18.09;55.06;101177.69;5073207;27;45457;-74
2022/06/09 05:23:11;;;;;;;;;1.67;1.67;;;;;18.11;54.96;101181.16;5067568;28;45520;-71
2022/06/09 05:25:37;;;;;;;;;2.00;2.00;;;;;18.12;55.13;101178.47;5063457;28;45553;-73
2022/06/09 05:28:03;;;;;;;;;1.00;1.00;;;;;18.10;54.97;101174.97;5068743;28;45376;-73
2022/06/09 05:30:28;;;;;;;;;6.67;3.00;;;;;18.17;54.94;101184.53;5073177;28;45954;-72
2022/06/09 05:32:55;;;;;;;;;3.00;3.00;;;;;18.20;54.90;101195.09;5071488;27;45562;-73
2022/06/09 05:35:21;;;;;;;;;4.00;4.00;;;;;18.25;54.74;101194.09;5064085;28;45348;-70
2022/06/09 05:46:05;;;;;;;;;4.33;3.00;;;;;18.51;54.10;101207.66;5074354;27;45689;-72
2022/06/09 05:48:31;;;;;;;;;3.00;3.00;;;;;18.53;54.06;101199.63;5070733;27;45756;-73
2022/06/09 05:50:57;;;;;;;;;4.00;3.00;;;;;18.58;54.01;101206.59;5077427;28;45305;-73
2022/06/09 05:53:23;;;;;;;;;3.67;3.00;;;;;18.53;53.96;101192.56;5074238;28;45543;-73
2022/06/09 05:55:57;;;;;;;;;3.00;1.33;;;;;18.57;53.78;101191.56;5071327;28;46141;-72
2022/06/09 05:58:22;;;;;;;;;2.00;2.00;;;;;18.60;53.51;101177.34;5050315;27;45522;-75
2022/06/09 06:00:49;;;;;;;;;4.67;2.33;;;;;18.83;53.46;101212.19;5055411;28;45362;-73
2022/06/09 06:03:16;;;;;;;;;2.00;2.00;;;;;18.65;53.46;101179.00;5057436;28;45456;-74
2022/06/09 06:08:25;;;;;;;;;3.67;3.00;;;;;18.84;53.14;101215.75;5057774;28;46466;-72
2022/06/09 06:10:52;;;;;;;;;5.00;4.67;;;;;18.97;52.98;101227.78;5057421;28;45239;-75
2022/06/09 06:13:25;;;;;;;;;4.00;4.00;;;;;18.90;53.01;101212.91;5057717;28;45414;-73
2022/06/09 06:15:50;;;;;;;;;4.33;3.00;;;;;18.99;52.89;101231.28;5055566;28;46901;-72
2022/06/09 06:18:16;;;;;;;;;5.67;3.00;;;;;18.92;52.96;101224.38;5057677;28;45449;-74
2022/06/09 06:20:44;;;;;;;;;3.67;3.00;;;;;18.99;53.11;101241.91;5057553;28;45310;-73
2022/06/09 06:23:10;;;;;;;;;2.67;2.00;;;;;19.06;53.26;101243.47;5055966;28;45319;-72
2022/06/09 06:25:36;;;;;;;;;2.00;2.00;;;;;19.16;53.02;101240.59;5052878;28;46605;-72
2022/06/09 06:28:02;;;;;;;;;3.67;3.00;;;;;18.99;52.73;101214.47;5047856;28;45618;-71
2022/06/09 06:30:28;;;;;;;;;7.00;3.67;;;;;19.15;52.77;101250.34;5043015;28;45684;-73
2022/06/09 06:32:55;;;;;;;;;4.00;1.67;;;;;18.97;52.66;101222.47;5043644;28;45470;-73
2022/06/09 06:35:21;;;;;;;;;3.00;3.00;;;;;19.11;52.98;101246.03;5049124;28;45783;-72
2022/06/09 06:37:46;;;;;;;;;4.00;1.33;;;;;19.14;52.92;101258.34;5054926;28;45294;-74
2022/06/09 06:40:14;;;;;;;;;3.00;2.33;;;;;19.18;52.46;101257.38;5054661;28;46067;-70
2022/06/09 06:42:40;;;;;;;;;3.00;3.00;;;;;19.25;52.88;101262.47;5044165;28;45410;-73
2022/06/09 06:45:06;;;;;;;;;3.00;1.33;;;;;19.39;52.43;101255.94;5041773;28;45968;-73
2022/06/09 06:47:32;;;;;;;;;5.67;3.00;;;;;19.40;52.50;101263.00;5055620;28;45416;-72
2022/06/09 06:49:58;;;;;;;;;6.00;4.00;;;;;19.08;52.25;101208.94;5047362;28;45560;-74
2022/06/09 06:52:24;;;;;;;;;5.33;5.00;;;;;19.47;52.42;101253.94;5055728;28;45443;-74
2022/06/09 06:54:50;;;;;;;;;4.00;4.00;;;;;19.72;51.92;101269.25;5049791;28;46357;-74
2022/06/09 06:57:16;;;;;;;;;3.00;3.00;;;;;19.81;51.55;101271.66;5043801;28;45380;-74
2022/06/09 06:59:41;;;;;;;;;4.67;3.00;;;;;19.86;51.29;101281.25;5055590;28;45374;-73
2022/06/09 07:02:11;;;;;;;;;7.67;3.00;;;;;19.98;51.24;101287.13;5057451;28;45276;-71
2022/06/09 07:04:36;;;;;;;;;3.33;3.00;;;;;20.11;50.98;101277.88;5057050;28;46063;-73
2022/06/09 07:07:02;;;;;;;;;1.00;1.00;;;;;20.01;50.69;101271.09;5059824;27;45562;-74
2022/06/09 07:09:29;;;;;;;;;5.33;4.00;;;;;20.07;51.52;101294.84;5065327;27;45684;-75
2022/06/09 07:11:54;;;;;;;;;3.33;3.00;;;;;19.90;50.76;101274.91;5069036;28;46431;-75
2022/06/09 07:14:20;;;;;;;;;5.00;3.00;;;;;19.77;50.22;101244.31;5068538;27;45476;-73
2022/06/09 07:16:46;;;;;;;;;6.00;6.00;;;;;20.20;50.01;101290.94;5047858;28;45652;-75
2022/06/09 07:19:12;;;;;;;;;5.00;4.00;;;;;20.24;49.90;101305.88;5066517;28;45775;-73
2022/06/09 07:21:38;;;;;;;;;5.00;4.00;;;;;20.02;49.90;101259.53;5077178;27;45474;-72
2022/06/09 07:24:04;;;;;;;;;3.33;3.33;;;;;20.14;49.63;101275.13;5065261;27;46158;-73
2022/06/09 07:26:30;;;;;;;;;8.67;5.00;;;;;20.38;49.52;101288.63;5042967;28;45409;-73
2022/06/09 07:28:55;;;;;;;;;4.00;4.00;;;;;20.43;48.95;101278.72;5057687;28;45439;-72
2022/06/09 07:31:21;;;;;;;;;7.33;5.00;;;;;20.75;48.68;101325.69;5058084;28;45449;-71
2022/06/09 07:33:47;;;;;;;;;5.33;5.00;;;;;20.84;48.48;101324.53;5057337;28;45611;-73
2022/06/09 07:36:17;;;;;;;;;5.67;3.67;;;;;20.28;48.09;101238.34;5058201;27;45429;-72
2022/06/09 07:38:43;;;;;;;;;6.00;4.67;;;;;20.80;48.21;101334.38;5056570;28;45558;-73
2022/06/09 07:41:09;;;;;;;;;5.33;5.33;;;;;20.86;48.16;101314.72;5058538;28;45330;-70
2022/06/09 07:43:35;;;;;;;;;5.00;5.00;;;;;21.08;47.40;101328.19;5057310;28;46642;-71
2022/06/09 07:46:01;;;;;;;;;5.00;3.00;;;;;21.12;47.13;101328.06;5057381;28;45784;-73
2022/06/09 07:48:28;;;;;;;;;4.67;4.33;;;;;21.27;46.63;101325.81;5058338;28;45501;-74
2022/06/09 07:50:54;;;;;;;;;4.00;4.00;;;;;21.37;46.38;101321.91;5058005;28;45625;-74
2022/06/09 07:53:25;;;;;;;;;3.33;3.33;;;;;21.12;46.62;101301.41;5056931;28;47646;-73
2022/06/09 07:55:51;;;;;;;;;3.00;3.00;;;;;21.22;46.45;101333.94;5055698;28;45465;-72
2022/06/09 07:58:18;;;;;;;;;3.00;3.00;;;;;21.12;46.99;101336.03;5046409;28;45867;-74
2022/06/09 08:00:45;;;;;;;;;6.00;4.00;;;;;21.00;47.31;101333.78;5053174;28;45503;-72
2022/06/09 08:03:16;;;;;;;;;5.67;4.00;;;;;20.85;47.58;101331.59;5056014;28;46129;-71
2022/06/09 08:05:42;;;;;;;;;5.00;3.00;;;;;20.86;47.38;101333.34;5056411;28;45436;-70
2022/06/09 08:08:08;;;;;;;;;4.67;4.00;;;;;20.90;47.12;101309.19;5056821;28;45430;-74
2022/06/09 08:10:34;;;;;;;;;7.33;4.33;;;;;21.17;46.82;101343.88;5056434;28;45441;-73
2022/06/09 08:13:02;;;;;;;;;6.00;3.00;;;;;21.26;46.67;101348.03;5042042;28;46088;-71
2022/06/09 08:15:30;;;;;;;;;3.33;3.33;;;;;21.23;45.81;101334.81;5056025;28;45443;-74
2022/06/09 08:17:57;;;;;;;;;4.00;4.00;;;;;21.38;46.10;101345.84;5055803;28;45391;-72
2022/06/09 08:20:25;;;;;;;;;3.67;3.00;;;;;21.39;45.65;101341.38;5054871;28;45846;-73
2022/06/09 08:22:55;;;;;;;;;6.00;4.00;;;;;21.49;44.88;101323.31;5054330;28;47196;-71
2022/06/09 08:25:21;;;;;;;;;5.33;5.33;;;;;21.57;44.44;101324.81;5054577;28;45460;-72
2022/06/09 08:27:47;;;;;;;;;3.67;3.67;;;;;21.84;44.01;101351.41;5057664;28;45262;-71
2022/06/09 08:30:15;;;;;;;;;5.00;3.00;;;;;21.92;43.89;101354.66;5059679;28;45650;-72
2022/06/09 08:32:41;;;;;;;;;3.33;3.33;;;;;21.93;44.38;101344.91;5059111;28;45528;-71
2022/06/09 08:35:11;;;;;;;;;6.00;4.33;;;;;21.99;44.25;101364.19;5058911;28;45432;-75
2022/06/09 08:37:37;;;;;;;;;4.33;4.33;;;;;21.50;45.30;101303.75;5059772;28;45377;-76
2022/06/09 08:40:06;;;;;;;;;4.67;3.00;;;;;21.79;44.46;101346.25;5059727;28;45416;-74
2022/06/09 08:42:53;;;;;;;;;4.00;4.00;;;;;21.97;43.92;101359.84;5059329;28;45363;-74
2022/06/09 08:45:33;;;;;;;;;4.33;4.00;;;;;21.56;45.18;101300.84;5059373;28;45446;-75
2022/06/09 08:48:00;;;;;;;;;3.00;3.00;;;;;21.94;44.56;101365.28;5059201;28;45655;-75
2022/06/09 08:50:59;;;;;;;;;3.00;3.00;;;;;21.97;44.59;101363.41;5058131;28;45445;-74
2022/06/09 08:53:47;;;;;;;;;4.00;4.00;;;;;21.70;44.79;101306.56;5026692;28;46150;-76
2022/06/09 08:56:18;;;;;;;;;4.00;3.00;;;;;22.07;44.28;101355.03;5046550;28;45394;-76
2022/06/09 08:58:53;;;;;;;;;4.33;4.00;;;;;21.70;44.42;101277.25;5043621;28;45514;-76
2022/06/09 09:01:34;;;;;;;;;8.00;3.00;;;;;22.16;44.65;101352.03;5058158;28;45458;-78
2022/06/09 09:04:03;;;;;;;;;4.67;4.00;;;;;21.92;44.32;101325.34;5058730;28;45509;-76
2022/06/09 09:06:37;;;;;;;;;4.00;4.00;;;;;21.88;43.83;101325.50;5058945;28;45306;-73
2022/06/09 09:09:12;;;;;;;;;4.00;2.00;;;;;21.79;43.97;101321.38;5057542;28;45477;-71
2022/06/09 09:11:51;;;;;;;;;2.00;2.00;;;;;22.00;44.27;101359.75;5058782;28;45467;-76
2022/06/09 09:14:24;;;;;;;;;2.00;2.00;;;;;21.77;43.45;101323.22;5057285;28;46784;-72
2022/06/09 09:17:10;;;;;;;;;3.00;2.67;;;;;21.76;44.28;101319.69;5059675;28;45410;-74
2022/06/09 09:20:02;;;;;;;;;1.67;1.33;;;;;21.96;44.33;101350.97;5062644;28;45518;-72
2022/06/09 09:22:57;;;;;;;;;4.00;2.00;;;;;22.09;43.66;101348.75;5069061;28;45463;-76
2022/06/09 09:25:45;;;;;;;;;4.67;3.00;;;;;22.17;43.69;101349.34;5066963;28;46280;-79
2022/06/09 09:28:20;;;;;;;;;3.33;2.00;;;;;22.12;43.36;101315.75;5062885;28;45432;-79
2022/06/09 09:31:01;;;;;;;;;3.67;3.00;;;;;22.35;42.98;101354.94;5060523;28;45516;-77
2022/06/09 09:33:28;;;;;;;;;2.00;2.00;;;;;22.40;43.30;101358.31;5056318;28;45405;-82
2022/06/09 09:36:01;;;;;;;;;3.00;3.00;;;;;22.38;43.25;101362.84;5066514;27;46566;-81
2022/06/09 09:38:38;;;;;;;;;2.67;2.67;;;;;22.18;43.45;101334.19;5044016;28;45975;-81
2022/06/09 09:41:28;;;;;;;;;3.00;2.00;;;;;22.36;43.37;101359.38;5059819;28;45480;-80
2022/06/09 09:43:55;;;;;;;;;6.33;2.00;;;;;22.38;42.77;101360.19;5059021;28;46304;-79
2022/06/09 09:46:30;;;;;;;;;3.00;3.00;;;;;22.42;43.41;101370.69;5056494;28;45545;-79
2022/06/09 09:48:59;;;;;;;;;3.33;3.33;;;;;22.47;42.58;101361.63;5061880;28;45318;-80
2022/06/09 09:51:35;;;;;;;;;3.00;3.00;;;;;22.44;42.83;101366.13;5056188;27;45330;-77
2022/06/09 09:54:09;;;;;;;;;5.00;3.00;;;;;22.43;43.18;101372.41;5057881;28;45402;-81
2022/06/09 09:56:40;;;;;;;;;4.33;2.33;;;;;22.41;42.61;101360.94;5062598;28;45580;-77
2022/06/09 09:59:26;;;;;;;;;3.33;2.67;;;;;22.24;42.75;101347.34;5061440;28;45232;-79
2022/06/09 10:10:26;;;;;;;;;4.00;2.33;;;;;22.84;41.34;101372.63;5057326;28;45598;-73
2022/06/09 10:12:55;;;;;;;;;3.33;2.00;;;;;22.73;41.23;101357.94;5056780;28;45538;-74
2022/06/09 10:15:23;;;;;;;;;4.00;2.00;;;;;22.69;41.11;101378.56;5055775;28;45457;-76
2022/06/09 10:18:03;;;;;;;;;2.00;2.00;;;;;22.56;41.70;101385.31;5056966;28;45814;-74
2022/06/09 10:20:34;;;;;;;;;3.00;3.00;;;;;22.40;41.79;101380.56;5072968;27;45460;-75
2022/06/09 10:23:13;;;;;;;;;5.67;3.33;;;;;22.33;42.09;101386.16;5069159;28;45515;-72
2022/06/09 10:26:18;;;;;;;;;3.00;3.00;;;;;22.20;42.33;101383.94;5073477;27;45262;-75
2022/06/09 10:29:26;;;;;;;;;5.00;4.67;;;;;22.05;42.24;101386.25;5063261;27;46969;-73
2022/06/09 10:32:16;;;;;;;;;2.00;2.00;;;;;21.98;42.08;101383.81;5070256;28;45738;-75
2022/06/09 10:34:59;;;;;;;;;3.67;3.00;;;;;21.98;41.42;101391.81;5068967;28;45501;-73
2022/06/09 10:37:34;;;;;;;;;6.33;3.00;;;;;21.93;41.50;101390.25;5073617;27;45323;-74
2022/06/09 10:40:28;;;;;;;;;6.00;4.00;;;;;21.93;41.99;101400.91;5068272;27;45509;-75
2022/06/09 10:43:34;;;;;;;;;6.33;6.33;;;;;21.95;45.44;101391.91;5073292;27;45751;-73
2022/06/09 10:46:21;;;;;;;;;10.33;7.67;;;;;22.12;42.24;101394.00;5030688;28;45452;-74
2022/06/09 10:55:14;;;;;;;;;110.25;99.75;;;;;22.68;42.61;101392.84;5072349;28;45562;-75
2022/06/09 10:58:08;;;;;;;;;91.25;84.50;;;;;22.90;43.03;101389.34;5059733;27;45452;-78
2022/06/09 11:00:40;;;;;;;;;62.50;47.50;;;;;23.24;42.41;101396.94;5053369;28;45443;-77
2022/06/09 11:03:28;;;;;;;;;36.67;32.33;;;;;23.31;42.04;101377.03;5057605;28;46701;-79
2022/06/09 11:06:19;;;;;;;;;25.00;21.00;;;;;23.68;41.48;101405.78;5056825;28;45452;-75
2022/06/09 11:08:57;;;;;;;;;12.67;12.00;;;;;23.84;40.37;101407.84;5053593;28;45272;-77
2022/06/09 11:11:22;;;;;;;;;11.33;9.67;;;;;23.97;39.71;101408.19;5056769;28;45449;-72
2022/06/09 11:14:11;;;;;;;;;9.00;7.67;;;;;24.04;38.89;101407.84;5050099;28;46589;-75
2022/06/09 11:16:55;;;;;;;;;7.00;5.67;;;;;24.18;38.49;101399.22;5047814;28;45394;-76
2022/06/09 11:19:45;;;;;;;;;7.67;5.00;;;;;24.34;39.18;101410.09;5074293;27;45535;-76
2022/06/09 11:22:45;;;;;;;;;9.00;5.33;;;;;24.45;39.41;101414.97;5057585;28;45407;-77
2022/06/09 11:25:11;;;;;;;;;5.33;5.00;;;;;24.46;39.27;101414.94;5049850;28;46438;-75
2022/06/09 11:27:53;;;;;;;;;4.00;4.00;;;;;24.40;39.10;101391.09;5038605;28;45614;-75
2022/06/09 11:30:22;;;;;;;;;8.00;5.00;;;;;24.59;37.98;101403.69;5050115;28;45754;-76
2022/06/09 11:33:13;;;;;;;;;2.00;2.00;;;;;24.45;37.06;101381.03;5046566;28;45516;-74
2022/06/09 11:36:12;;;;;;;;;3.33;3.00;;;;;24.73;37.32;101419.97;5054511;28;46008;-77
2022/06/09 11:38:50;;;;;;;;;3.00;2.33;;;;;24.48;37.19;101358.63;5059758;28;45443;-76
2022/06/09 11:41:43;;;;;;;;;5.67;4.00;;;;;24.31;37.82;101308.53;5073330;27;45929;-76
2022/06/09 11:44:28;;;;;;;;;4.00;3.00;;;;;25.01;37.50;101405.25;5053139;27;45434;-74
2022/06/09 11:46:57;;;;;;;;;3.25;3.25;;;;;25.03;36.50;101408.75;5061238;28;45988;-71
2022/06/09 11:49:32;;;;;;;;;3.75;3.75;;;;;25.10;36.54;101416.41;5062072;28;45422;-73
2022/06/09 11:52:03;;;;;;;;;3.33;3.33;;;;;25.20;35.56;101414.22;5060667;27;45431;-75
2022/06/09 11:54:38;;;;;;;;;3.50;1.75;;;;;25.31;36.43;101422.59;5061578;28;45453;-72
2022/06/09 11:57:31;;;;;;;;;2.25;2.25;;;;;25.43;36.50;101420.25;5060174;27;45588;-73
2022/06/09 11:59:59;;;;;;;;;2.25;2.25;;;;;25.48;35.66;101413.69;5046754;28;45377;-74
2022/06/09 12:02:40;;;;;;;;;3.00;3.00;;;;;25.54;35.44;101405.34;5057824;28;45438;-74
2022/06/09 12:05:22;;;;;;;;;1.50;1.50;;;;;25.49;35.95;101391.31;5058748;28;45473;-74
2022/06/09 12:08:08;;;;;;;;;3.00;3.00;;;;;25.40;35.61;101383.72;5054642;28;45516;-73
2022/06/09 12:10:55;;;;;;;;;3.25;3.25;;;;;25.58;36.45;101408.78;5053587;28;45512;-75